Time;durP1;ratioP1;P1;durP2;ratioP2;P2;SDS_P1;SDS_P2;PMS_P1;PMS_P2;Temp;Humidity;BMP_temperature;BMP_pressure;BME280_temperature;BME280_humidity;BME280_pressure;Samples;Min_cycle;Max_cycle;Signal;HPM_P1;HPM_P2
2023/10/10 00:02:20;;;;;;;4.70;2.60;;;;;;;;;;5073815;28;20736;-55
2023/10/10 00:04:49;;;;;;;4.87;2.50;;;;;;;;;;5073727;28;20270;-54
2023/10/10 00:07:15;;;;;;;7.47;3.20;;;;;;;;;;5073576;28;20202;-54
2023/10/10 00:09:44;;;;;;;6.93;2.47;;;;;;;;;;5073814;28;20242;-54
2023/10/10 00:12:10;;;;;;;5.37;2.73;;;;;;;;;;5073519;28;20231;-54
2023/10/10 00:14:36;;;;;;;4.80;2.80;;;;;;;;;;5073296;28;20199;-55
2023/10/10 00:17:03;;;;;;;4.70;2.20;;;;;;;;;;5073476;28;20226;-54
2023/10/10 00:19:31;;;;;;;5.33;2.50;;;;;;;;;;5071644;28;20265;-56
2023/10/10 00:21:57;;;;;;;6.07;2.70;;;;;;;;;;5070039;28;20606;-57
2023/10/10 00:24:30;;;;;;;3.63;2.17;;;;;;;;;;5073504;28;20208;-58
2023/10/10 00:26:58;;;;;;;4.80;2.50;;;;;;;;;;5073382;28;20225;-58
2023/10/10 00:29:26;;;;;;;7.43;2.40;;;;;;;;;;5073478;28;20200;-57
2023/10/10 00:31:55;;;;;;;6.13;2.57;;;;;;;;;;5073188;28;20230;-56
2023/10/10 00:34:23;;;;;;;4.87;2.10;;;;;;;;;;5073155;28;20645;-56
2023/10/10 00:36:50;;;;;;;5.87;2.50;;;;;;;;;;5072832;28;20642;-56
2023/10/10 00:41:54;;;;;;;5.87;2.50;;;;;;;;;;5072928;28;20731;-58
2023/10/10 00:44:21;;;;;;;3.07;2.17;;;;;;;;;;5073052;28;20210;-55
2023/10/10 00:46:51;;;;;;;6.23;2.57;;;;;;;;;;5072890;28;20211;-57
2023/10/10 00:49:23;;;;;;;3.43;2.10;;;;;;;;;;5072932;28;20210;-56
2023/10/10 00:51:51;;;;;;;4.43;2.67;;;;;;;;;;5072866;28;20333;-56
2023/10/10 00:56:52;;;;;;;5.53;2.43;;;;;;;;;;5072798;28;20286;-56
2023/10/10 00:59:18;;;;;;;3.67;2.00;;;;;;;;;;5072722;28;20253;-57
2023/10/10 01:01:45;;;;;;;4.13;2.50;;;;;;;;;;5072568;28;20268;-57
2023/10/10 01:04:12;;;;;;;3.83;2.00;;;;;;;;;;5072318;28;20721;-57
2023/10/10 01:06:39;;;;;;;4.63;2.40;;;;;;;;;;5072431;28;20202;-57
2023/10/10 01:09:20;;;;;;;5.17;2.20;;;;;;;;;;5072379;28;20542;-57
2023/10/10 01:11:48;;;;;;;6.53;2.20;;;;;;;;;;5072467;28;20227;-55
2023/10/10 01:14:18;;;;;;;7.37;2.90;;;;;;;;;;5072139;28;20206;-55
2023/10/10 01:16:47;;;;;;;5.07;2.23;;;;;;;;;;5072100;28;20203;-55
2023/10/10 01:19:14;;;;;;;4.10;2.47;;;;;;;;;;5072073;28;20199;-57
2023/10/10 01:21:50;;;;;;;7.20;2.50;;;;;;;;;;5072104;28;20389;-55
2023/10/10 01:24:18;;;;;;;5.27;2.33;;;;;;;;;;5072167;28;20265;-56
2023/10/10 01:26:44;;;;;;;5.53;2.30;;;;;;;;;;5072093;28;20256;-56
2023/10/10 01:29:21;;;;;;;3.80;2.37;;;;;;;;;;5071971;28;20276;-56
2023/10/10 01:31:48;;;;;;;7.03;2.50;;;;;;;;;;5072340;28;20199;-56
2023/10/10 01:34:30;;;;;;;6.57;2.57;;;;;;;;;;5071834;28;20630;-56
2023/10/10 01:36:58;;;;;;;3.27;2.23;;;;;;;;;;5071693;28;20298;-56
2023/10/10 01:39:34;;;;;;;4.13;2.20;;;;;;;;;;5071708;28;20582;-56
2023/10/10 01:42:00;;;;;;;4.70;2.40;;;;;;;;;;5071870;28;20199;-56
2023/10/10 01:44:27;;;;;;;4.73;2.40;;;;;;;;;;5071829;28;20658;-57
2023/10/10 01:46:54;;;;;;;6.90;2.30;;;;;;;;;;5071834;28;20245;-57
2023/10/10 01:49:20;;;;;;;4.03;2.27;;;;;;;;;;5071848;28;20264;-56
2023/10/10 01:51:50;;;;;;;3.67;2.30;;;;;;;;;;5071369;28;20283;-56
2023/10/10 01:54:20;;;;;;;5.30;2.80;;;;;;;;;;5071711;28;20811;-56
2023/10/10 01:56:47;;;;;;;4.40;2.70;;;;;;;;;;5071792;28;20206;-56
2023/10/10 01:59:19;;;;;;;4.93;2.63;;;;;;;;;;5071572;28;20564;-56
2023/10/10 02:01:45;;;;;;;4.40;2.80;;;;;;;;;;5071745;28;20258;-55
2023/10/10 02:04:11;;;;;;;4.67;2.43;;;;;;;;;;5071419;28;20282;-55
2023/10/10 02:06:40;;;;;;;11.90;2.90;;;;;;;;;;5056735;28;20200;-56
2023/10/10 02:09:19;;;;;;;5.27;2.93;;;;;;;;;;5051398;28;20192;-56
2023/10/10 02:11:56;;;;;;;5.10;2.73;;;;;;;;;;5051555;28;20203;-56
2023/10/10 02:14:25;;;;;;;5.57;2.87;;;;;;;;;;5051440;28;20610;-56
2023/10/10 02:16:54;;;;;;;3.37;2.73;;;;;;;;;;5051437;28;20584;-56
2023/10/10 02:19:27;;;;;;;7.73;3.00;;;;;;;;;;5051506;28;20208;-56
2023/10/10 02:22:12;;;;;;;6.40;3.60;;;;;;;;;;5051286;28;20270;-57
2023/10/10 02:24:40;;;;;;;3.63;2.57;;;;;;;;;;5051512;28;20250;-56
2023/10/10 02:27:08;;;;;;;3.83;2.90;;;;;;;;;;5051378;28;20199;-56
2023/10/10 02:29:35;;;;;;;6.37;3.17;;;;;;;;;;5051465;28;20211;-56
2023/10/10 02:32:18;;;;;;;5.83;3.07;;;;;;;;;;5051304;28;20192;-58
2023/10/10 02:34:51;;;;;;;5.97;2.73;;;;;;;;;;5051376;28;20203;-56
2023/10/10 02:42:35;;;;;;;6.53;3.30;;;;;;;;;;5051323;28;20331;-56
2023/10/10 02:45:02;;;;;;;5.23;3.13;;;;;;;;;;5051200;28;20200;-56
2023/10/10 02:47:32;;;;;;;5.63;3.10;;;;;;;;;;5051328;28;20196;-56
2023/10/10 02:50:12;;;;;;;7.23;3.60;;;;;;;;;;5051002;28;20199;-57
2023/10/10 02:52:39;;;;;;;5.43;3.40;;;;;;;;;;5051078;28;20226;-57
2023/10/10 02:55:11;;;;;;;9.20;3.47;;;;;;;;;;5051060;28;20196;-56
2023/10/10 02:57:41;;;;;;;6.27;3.30;;;;;;;;;;5051067;28;20306;-56
2023/10/10 03:00:27;;;;;;;6.60;3.50;;;;;;;;;;5050977;28;20200;-57
2023/10/10 03:02:54;;;;;;;6.20;3.47;;;;;;;;;;5051977;28;20200;-56
2023/10/10 03:05:38;;;;;;;6.77;3.30;;;;;;;;;;5054891;28;20196;-57
2023/10/10 03:08:12;;;;;;;4.20;3.20;;;;;;;;;;5054725;28;20225;-56
2023/10/10 03:10:39;;;;;;;5.17;2.73;;;;;;;;;;5053009;28;20194;-56
2023/10/10 03:13:47;;;;;;;6.07;3.53;;;;;;;;;;5052916;28;20204;-56
2023/10/10 03:21:43;;;;;;;6.10;3.73;;;;;;;;;;5052623;28;20192;-57
2023/10/10 03:24:29;;;;;;;3.90;3.30;;;;;;;;;;5054274;28;20200;-57
2023/10/10 03:27:37;;;;;;;7.23;3.70;;;;;;;;;;5054255;28;20200;-55
2023/10/10 03:29:50;;;;;;;8.67;3.70;;;;;;;;;;5049189;28;20346;-56
2023/10/10 03:32:32;;;;;;;7.83;4.03;;;;;;;;;;5050735;28;20741;-56
2023/10/10 03:35:05;;;;;;;6.13;3.90;;;;;;;;;;5054196;28;20224;-56
2023/10/10 03:37:43;;;;;;;6.30;3.70;;;;;;;;;;5050768;28;20579;-57
2023/10/10 03:40:26;;;;;;;7.13;3.80;;;;;;;;;;5052153;28;20753;-57
2023/10/10 05:24:43;;;;;;;4.03;3.67;;;;;;;;;;5048572;28;20271;-57
2023/10/10 05:27:11;;;;;;;4.20;3.80;;;;;;;;;;5046603;28;20226;-57
2023/10/10 05:29:37;;;;;;;6.33;3.80;;;;;;;;;;5050387;28;20220;-57
2023/10/10 05:32:08;;;;;;;4.87;3.83;;;;;;;;;;5048417;28;20693;-57
2023/10/10 05:34:34;;;;;;;7.00;4.83;;;;;;;;;;5048566;28;20700;-57
2023/10/10 05:37:00;;;;;;;4.67;4.17;;;;;;;;;;5049792;28;20302;-57
2023/10/10 05:39:32;;;;;;;5.50;5.00;;;;;;;;;;5046262;28;20340;-57
2023/10/10 05:42:01;;;;;;;6.50;5.00;;;;;;;;;;5048322;28;20210;-57
2023/10/10 05:44:29;;;;;;;4.93;4.50;;;;;;;;;;5046498;28;20703;-57
2023/10/10 05:46:55;;;;;;;8.17;5.03;;;;;;;;;;5047757;28;20200;-57
2023/10/10 05:49:21;;;;;;;6.73;4.40;;;;;;;;;;5047726;28;20472;-57
2023/10/10 05:51:47;;;;;;;5.70;4.40;;;;;;;;;;5046597;28;20573;-57
2023/10/10 05:54:13;;;;;;;5.50;4.57;;;;;;;;;;5048914;28;20211;-57
2023/10/10 05:56:41;;;;;;;4.40;4.00;;;;;;;;;;5042977;28;20648;-57
2023/10/10 05:59:08;;;;;;;4.33;3.93;;;;;;;;;;5048093;28;20314;-57
2023/10/10 06:01:36;;;;;;;4.83;4.27;;;;;;;;;;5050044;28;20291;-57
2023/10/10 06:04:02;;;;;;;7.73;4.23;;;;;;;;;;5049821;28;20670;-57
2023/10/10 06:06:28;;;;;;;6.50;5.07;;;;;;;;;;5046469;28;20207;-57
2023/10/10 06:09:00;;;;;;;5.57;4.30;;;;;;;;;;5043004;28;20192;-57
2023/10/10 06:11:27;;;;;;;6.97;4.77;;;;;;;;;;5046453;28;20393;-57
2023/10/10 06:13:53;;;;;;;6.00;5.00;;;;;;;;;;5048048;28;20192;-57
2023/10/10 06:16:23;;;;;;;8.37;5.00;;;;;;;;;;5048028;28;20746;-57
2023/10/10 06:18:50;;;;;;;7.27;5.40;;;;;;;;;;5046337;28;20239;-57
2023/10/10 06:21:16;;;;;;;5.90;5.30;;;;;;;;;;5046054;28;20279;-57
2023/10/10 06:23:43;;;;;;;5.63;4.37;;;;;;;;;;5046268;28;20561;-57
2023/10/10 06:26:09;;;;;;;6.00;5.20;;;;;;;;;;5044630;28;20802;-57
2023/10/10 06:28:36;;;;;;;10.00;5.67;;;;;;;;;;5042896;28;20227;-56
2023/10/10 06:31:10;;;;;;;7.47;5.67;;;;;;;;;;5047818;28;20279;-57
2023/10/10 06:33:40;;;;;;;7.70;5.37;;;;;;;;;;5046486;28;20278;-57
2023/10/10 06:41:38;;;;;;;10.10;6.07;;;;;;;;;;5050317;28;20192;-56
2023/10/10 06:44:04;;;;;;;6.90;5.20;;;;;;;;;;5051779;28;20279;-57
2023/10/10 06:46:32;;;;;;;7.10;5.63;;;;;;;;;;5046843;28;20196;-57
2023/10/10 06:49:04;;;;;;;9.90;6.67;;;;;;;;;;5048005;28;20204;-57
2023/10/10 06:51:30;;;;;;;10.50;7.47;;;;;;;;;;5044911;28;20277;-57
2023/10/10 06:53:56;;;;;;;11.57;7.67;;;;;;;;;;5046574;28;20196;-57
2023/10/10 06:59:09;;;;;;;8.27;7.13;;;;;;;;;;5044419;28;20219;-57
2023/10/10 07:01:35;;;;;;;7.47;6.20;;;;;;;;;;5049767;28;20262;-57
2023/10/10 07:04:04;;;;;;;7.03;6.33;;;;;;;;;;5047940;28;20200;-55
2023/10/10 07:06:30;;;;;;;7.80;6.70;;;;;;;;;;5049247;28;20212;-55
2023/10/10 07:09:14;;;;;;;10.90;7.53;;;;;;;;;;5048915;28;20201;-57
2023/10/10 07:11:41;;;;;;;9.53;7.93;;;;;;;;;;5054615;28;20204;-57
2023/10/10 07:14:10;;;;;;;11.57;8.00;;;;;;;;;;5050933;28;20291;-56
2023/10/10 07:16:42;;;;;;;11.03;7.70;;;;;;;;;;5052684;28;20204;-56
2023/10/10 07:19:19;;;;;;;11.43;8.30;;;;;;;;;;5050870;28;20228;-56
2023/10/10 07:21:45;;;;;;;10.57;8.40;;;;;;;;;;5053031;28;20196;-57
2023/10/10 07:24:15;;;;;;;9.40;8.50;;;;;;;;;;5049117;28;20258;-56
2023/10/10 07:26:41;;;;;;;10.43;8.13;;;;;;;;;;5047526;28;20204;-56
2023/10/10 07:29:26;;;;;;;11.80;9.00;;;;;;;;;;5052766;28;20250;-57
2023/10/10 07:31:53;;;;;;;12.33;9.00;;;;;;;;;;5054318;28;20287;-57
2023/10/10 07:34:34;;;;;;;10.97;8.77;;;;;;;;;;5049199;28;20204;-56
2023/10/10 07:37:08;;;;;;;10.17;8.83;;;;;;;;;;5050795;28;20234;-57
2023/10/10 07:39:36;;;;;;;10.83;8.70;;;;;;;;;;5048858;28;20235;-56
2023/10/10 07:42:02;;;;;;;10.77;8.37;;;;;;;;;;5047446;28;20208;-56
2023/10/10 07:44:30;;;;;;;13.57;8.60;;;;;;;;;;5048962;28;20612;-55
2023/10/10 07:49:50;;;;;;;12.23;9.00;;;;;;;;;;5047667;28;20522;-56
2023/10/10 07:52:20;;;;;;;10.43;9.23;;;;;;;;;;5048683;28;20200;-56
2023/10/10 07:54:46;;;;;;;14.00;8.60;;;;;;;;;;5050351;28;20193;-56
2023/10/10 07:57:22;;;;;;;11.50;8.50;;;;;;;;;;5048507;28;20609;-54
2023/10/10 07:59:48;;;;;;;8.77;7.57;;;;;;;;;;5048605;28;20280;-57
2023/10/10 08:02:24;;;;;;;9.97;8.63;;;;;;;;;;5050173;28;20249;-53
2023/10/10 08:04:51;;;;;;;10.20;8.93;;;;;;;;;;5052031;28;20735;-53
2023/10/10 08:07:18;;;;;;;11.93;7.73;;;;;;;;;;5052035;28;20208;-54
2023/10/10 08:09:45;;;;;;;8.30;7.50;;;;;;;;;;5053542;28;20185;-54
2023/10/10 08:12:12;;;;;;;9.40;7.60;;;;;;;;;;5053280;28;20208;-54
2023/10/10 08:14:39;;;;;;;10.93;8.50;;;;;;;;;;5050214;28;20234;-52
2023/10/10 08:17:18;;;;;;;10.83;8.73;;;;;;;;;;5051871;28;20204;-55
2023/10/10 08:19:50;;;;;;;8.73;7.83;;;;;;;;;;5051631;28;20204;-54
2023/10/10 08:22:18;;;;;;;11.37;8.37;;;;;;;;;;5046424;28;20367;-55
2023/10/10 08:24:44;;;;;;;9.87;7.03;;;;;;;;;;5048216;28;20200;-55
2023/10/10 08:27:11;;;;;;;8.77;7.13;;;;;;;;;;5051471;28;20218;-54
2023/10/10 08:29:38;;;;;;;8.80;7.00;;;;;;;;;;5051593;28;20192;-55
2023/10/10 08:32:08;;;;;;;9.60;7.40;;;;;;;;;;5053207;28;20635;-55
2023/10/10 08:34:38;;;;;;;9.20;7.23;;;;;;;;;;5048275;28;20208;-55
2023/10/10 08:37:04;;;;;;;10.70;7.47;;;;;;;;;;5053034;28;20218;-55
2023/10/10 08:39:35;;;;;;;8.80;7.90;;;;;;;;;;5052712;28;20233;-54
2023/10/10 08:42:05;;;;;;;8.40;7.03;;;;;;;;;;5053084;28;20206;-55
2023/10/10 08:44:35;;;;;;;9.13;7.23;;;;;;;;;;5053075;28;20199;-54
2023/10/10 08:47:03;;;;;;;9.23;6.70;;;;;;;;;;5053341;28;20251;-55
2023/10/10 08:49:29;;;;;;;8.77;6.50;;;;;;;;;;5052753;28;20200;-55
2023/10/10 08:52:01;;;;;;;9.00;7.40;;;;;;;;;;5047677;28;20198;-55
2023/10/10 08:54:27;;;;;;;9.50;8.10;;;;;;;;;;5051261;28;20212;-55
2023/10/10 08:57:02;;;;;;;11.13;8.13;;;;;;;;;;5043978;28;20293;-55
2023/10/10 08:59:29;;;;;;;8.57;7.57;;;;;;;;;;5050761;28;20232;-55
2023/10/10 09:01:55;;;;;;;9.33;7.67;;;;;;;;;;5043587;28;20205;-55
2023/10/10 09:04:30;;;;;;;8.80;6.60;;;;;;;;;;5047311;28;20211;-55
2023/10/10 09:09:35;;;;;;;9.77;7.77;;;;;;;;;;5052368;28;20251;-54
2023/10/10 09:12:03;;;;;;;8.47;7.50;;;;;;;;;;5052452;28;20207;-53
2023/10/10 09:14:39;;;;;;;9.67;7.23;;;;;;;;;;5052396;28;20674;-54
2023/10/10 09:17:06;;;;;;;9.17;7.37;;;;;;;;;;5052224;28;20208;-54
2023/10/10 09:19:32;;;;;;;7.73;6.90;;;;;;;;;;5052633;28;20257;-54
2023/10/10 09:22:02;;;;;;;6.70;6.00;;;;;;;;;;5052161;28;20277;-54
2023/10/10 09:24:31;;;;;;;7.00;6.30;;;;;;;;;;5052077;28;20300;-54
2023/10/10 09:26:59;;;;;;;11.77;6.23;;;;;;;;;;5052167;28;20222;-54
2023/10/10 09:29:34;;;;;;;8.53;6.67;;;;;;;;;;5052174;28;20196;-54
2023/10/10 09:32:00;;;;;;;7.40;6.60;;;;;;;;;;5052308;28;20236;-53
2023/10/10 09:34:29;;;;;;;8.63;6.77;;;;;;;;;;5052021;28;20789;-54
2023/10/10 09:36:57;;;;;;;8.90;7.27;;;;;;;;;;5052050;28;20341;-54
2023/10/10 09:39:35;;;;;;;11.20;6.77;;;;;;;;;;5051748;28;20240;-55
2023/10/10 09:42:06;;;;;;;8.73;6.33;;;;;;;;;;5052205;28;20206;-55
2023/10/10 09:47:52;;;;;;;8.70;7.80;;;;;;;;;;5029855;28;20246;-55
2023/10/10 09:52:57;;;;;;;8.80;7.17;;;;;;;;;;5042503;28;20200;-55
2023/10/10 09:58:01;;;;;;;9.37;7.00;;;;;;;;;;5051802;28;20220;-55
2023/10/10 10:05:58;;;;;;;9.47;6.50;;;;;;;;;;5051361;28;20195;-55
2023/10/10 10:08:36;;;;;;;8.80;7.90;;;;;;;;;;5050938;28;20207;-55
2023/10/10 10:11:11;;;;;;;9.63;8.63;;;;;;;;;;5051475;28;20216;-55
2023/10/10 10:13:48;;;;;;;8.73;7.93;;;;;;;;;;5050512;28;20203;-54
2023/10/10 10:16:25;;;;;;;10.80;8.83;;;;;;;;;;5051021;28;20203;-55
2023/10/10 10:19:11;;;;;;;11.80;8.67;;;;;;;;;;5051231;28;20227;-55
2023/10/10 10:21:52;;;;;;;13.50;8.63;;;;;;;;;;5051158;28;20253;-55
2023/10/10 10:24:26;;;;;;;10.77;9.03;;;;;;;;;;5051308;28;20203;-53
2023/10/10 10:27:12;;;;;;;9.47;8.37;;;;;;;;;;5051440;28;20199;-55
2023/10/10 10:29:38;;;;;;;12.70;9.50;;;;;;;;;;5051132;28;20192;-55
2023/10/10 10:32:07;;;;;;;13.00;9.20;;;;;;;;;;5051302;28;20196;-55
2023/10/10 10:34:35;;;;;;;12.43;10.13;;;;;;;;;;5050992;28;20203;-55
2023/10/10 10:37:20;;;;;;;11.00;9.90;;;;;;;;;;5050910;28;20739;-55
2023/10/10 10:40:23;;;;;;;14.33;10.73;;;;;;;;;;5050996;28;20293;-53
2023/10/10 10:42:34;;;;;;;12.70;9.67;;;;;;;;;;5049449;28;20207;-53
2023/10/10 10:45:24;;;;;;;11.77;10.00;;;;;;;;;;5051489;28;20275;-51
2023/10/10 10:47:54;;;;;;;10.97;9.87;;;;;;;;;;5051503;28;20257;-55
2023/10/10 10:50:40;;;;;;;11.23;9.70;;;;;;;;;;5051329;28;20242;-55
2023/10/10 10:53:08;;;;;;;11.23;9.90;;;;;;;;;;5051364;28;20210;-55
2023/10/10 10:55:41;;;;;;;12.57;10.37;;;;;;;;;;5051256;28;20208;-54
2023/10/10 10:58:20;;;;;;;11.90;9.13;;;;;;;;;;5050991;28;20228;-54
2023/10/10 11:03:33;;;;;;;13.17;10.47;;;;;;;;;;5041213;28;20196;-55
2023/10/10 11:05:59;;;;;;;12.23;10.07;;;;;;;;;;5069136;28;20617;-54
2023/10/10 11:11:58;;;;;;;18.33;12.70;;;;;;;;;;5050776;28;20431;-54
2023/10/10 11:16:45;;;;;;;14.53;12.03;;;;;;;;;;5050950;28;20206;-54
2023/10/10 11:19:24;;;;;;;13.97;12.33;;;;;;;;;;5050623;28;20354;-58
2023/10/10 11:21:53;;;;;;;14.47;11.80;;;;;;;;;;5050719;28;20721;-55
2023/10/10 11:24:23;;;;;;;16.07;12.00;;;;;;;;;;5052424;28;20226;-56
2023/10/10 11:26:59;;;;;;;15.03;13.00;;;;;;;;;;5054573;28;20200;-56
2023/10/10 11:29:29;;;;;;;14.93;13.43;;;;;;;;;;5054183;28;20303;-55
2023/10/10 11:32:06;;;;;;;18.77;14.53;;;;;;;;;;5054468;28;20209;-56
2023/10/10 11:34:42;;;;;;;20.43;16.33;;;;;;;;;;5054455;28;20542;-55
2023/10/10 11:37:13;;;;;;;21.03;17.37;;;;;;;;;;5054279;28;20300;-56
2023/10/10 11:39:47;;;;;;;22.53;17.30;;;;;;;;;;5054087;28;20285;-56
2023/10/10 11:42:13;;;;;;;26.67;20.90;;;;;;;;;;5054289;28;20232;-56
2023/10/10 11:44:41;;;;;;;27.93;20.87;;;;;;;;;;5054367;28;20202;-56
2023/10/10 11:47:21;;;;;;;35.73;23.33;;;;;;;;;;5054101;28;20202;-55
2023/10/10 11:49:57;;;;;;;28.93;21.53;;;;;;;;;;5052406;28;20210;-56
2023/10/10 11:52:27;;;;;;;32.03;23.17;;;;;;;;;;5054129;28;20205;-56
2023/10/10 11:54:55;;;;;;;28.83;22.23;;;;;;;;;;5054132;28;20206;-55
2023/10/10 11:57:21;;;;;;;30.27;20.90;;;;;;;;;;5053807;28;20267;-56
2023/10/10 11:59:47;;;;;;;26.13;19.80;;;;;;;;;;5053983;28;20227;-54
2023/10/10 12:02:29;;;;;;;26.60;20.53;;;;;;;;;;5053809;28;20210;-54
2023/10/10 12:04:55;;;;;;;25.03;21.23;;;;;;;;;;5053932;28;20205;-54
2023/10/10 12:07:24;;;;;;;26.37;19.57;;;;;;;;;;5053880;28;20203;-55
2023/10/10 12:09:52;;;;;;;27.90;20.70;;;;;;;;;;5053821;28;20278;-54
2023/10/10 12:12:18;;;;;;;23.40;18.53;;;;;;;;;;5053981;28;20202;-55
2023/10/10 12:14:43;;;;;;;25.17;18.33;;;;;;;;;;5053656;28;20208;-55
2023/10/10 12:17:10;;;;;;;23.37;19.73;;;;;;;;;;5053538;28;20273;-55
2023/10/10 12:19:36;;;;;;;23.80;18.43;;;;;;;;;;5050207;28;20231;-55
2023/10/10 12:22:07;;;;;;;25.93;20.20;;;;;;;;;;5051895;28;20203;-54
2023/10/10 12:24:35;;;;;;;25.40;18.30;;;;;;;;;;5050148;28;20211;-55
2023/10/10 12:27:01;;;;;;;23.43;18.47;;;;;;;;;;5053665;28;20203;-54
2023/10/10 12:29:30;;;;;;;24.43;19.57;;;;;;;;;;5051654;28;20214;-55
2023/10/10 12:31:56;;;;;;;24.93;18.57;;;;;;;;;;5051627;28;20744;-55
2023/10/10 12:34:23;;;;;;;27.77;19.60;;;;;;;;;;5051535;28;20202;-55
2023/10/10 12:36:49;;;;;;;22.10;17.90;;;;;;;;;;5052852;28;20632;-55
2023/10/10 12:39:15;;;;;;;23.67;17.77;;;;;;;;;;5051225;28;20236;-55
2023/10/10 12:41:46;;;;;;;20.97;16.73;;;;;;;;;;5051606;28;20207;-55
2023/10/10 12:44:12;;;;;;;24.57;17.83;;;;;;;;;;5049793;28;20224;-55
2023/10/10 12:46:40;;;;;;;23.13;16.83;;;;;;;;;;5052970;28;20200;-55
2023/10/10 12:49:11;;;;;;;27.73;18.57;;;;;;;;;;5051304;28;20572;-54
2023/10/10 12:51:38;;;;;;;27.50;18.67;;;;;;;;;;5051433;28;20795;-55
2023/10/10 12:54:10;;;;;;;24.50;17.77;;;;;;;;;;5052858;28;20298;-55
2023/10/10 12:56:48;;;;;;;27.73;18.43;;;;;;;;;;5052803;28;20192;-55
2023/10/10 12:59:18;;;;;;;25.53;19.57;;;;;;;;;;5049369;28;20235;-55
2023/10/10 13:01:44;;;;;;;25.53;18.03;;;;;;;;;;5047761;28;20215;-55
2023/10/10 13:04:11;;;;;;;25.83;18.27;;;;;;;;;;5049155;28;20278;-54
2023/10/10 13:06:39;;;;;;;26.03;17.53;;;;;;;;;;5052602;28;20615;-55
2023/10/10 13:09:08;;;;;;;26.77;18.00;;;;;;;;;;5050995;28;20215;-54
2023/10/10 13:11:43;;;;;;;25.63;18.17;;;;;;;;;;5052566;28;20207;-54
2023/10/10 13:14:10;;;;;;;27.10;18.90;;;;;;;;;;5052580;28;20200;-55
2023/10/10 13:16:52;;;;;;;25.03;17.83;;;;;;;;;;5048869;28;20201;-55
2023/10/10 13:19:23;;;;;;;25.17;15.83;;;;;;;;;;5052306;28;20229;-54
2023/10/10 13:21:52;;;;;;;20.00;15.07;;;;;;;;;;5049024;28;20275;-55
2023/10/10 13:24:18;;;;;;;23.13;16.93;;;;;;;;;;5050747;28;20255;-54
2023/10/10 13:26:49;;;;;;;24.47;16.20;;;;;;;;;;5052359;28;20203;-54
2023/10/10 13:29:16;;;;;;;26.27;17.40;;;;;;;;;;5050406;28;20242;-55
2023/10/10 13:31:49;;;;;;;28.50;17.67;;;;;;;;;;5050438;28;20667;-54
2023/10/10 13:34:17;;;;;;;24.73;16.17;;;;;;;;;;5050464;28;20279;-55
2023/10/10 13:36:43;;;;;;;27.57;17.33;;;;;;;;;;5052042;28;20688;-54
2023/10/10 13:39:15;;;;;;;21.23;15.00;;;;;;;;;;5051938;28;20298;-55
2023/10/10 13:41:41;;;;;;;22.47;16.07;;;;;;;;;;5050474;28;20196;-54
2023/10/10 13:44:07;;;;;;;21.03;16.90;;;;;;;;;;5052084;28;20602;-54
2023/10/10 13:46:37;;;;;;;24.33;18.03;;;;;;;;;;5050096;28;20196;-54
2023/10/10 13:49:08;;;;;;;22.83;16.97;;;;;;;;;;5047872;28;20275;-55
2023/10/10 13:51:41;;;;;;;28.10;18.00;;;;;;;;;;5048638;28;20212;-55
2023/10/10 13:54:07;;;;;;;22.87;16.70;;;;;;;;;;5052028;28;20611;-55
2023/10/10 13:56:33;;;;;;;27.43;16.97;;;;;;;;;;5051861;28;20205;-55
2023/10/10 13:59:02;;;;;;;22.87;16.23;;;;;;;;;;5049860;28;20239;-55
2023/10/10 14:04:01;;;;;;;24.63;16.10;;;;;;;;;;5051270;28;20192;-55
2023/10/10 14:06:34;;;;;;;21.73;16.60;;;;;;;;;;5051293;28;20200;-55
2023/10/10 14:09:00;;;;;;;24.87;16.03;;;;;;;;;;5051417;28;20221;-55
2023/10/10 14:11:27;;;;;;;19.93;13.10;;;;;;;;;;5049473;28;20608;-55
2023/10/10 14:13:53;;;;;;;16.87;12.73;;;;;;;;;;5049594;28;20327;-55
2023/10/10 14:16:19;;;;;;;19.47;13.03;;;;;;;;;;5049449;28;20562;-55
2023/10/10 14:18:47;;;;;;;20.60;12.13;;;;;;;;;;5049550;28;20220;-55
2023/10/10 14:21:13;;;;;;;17.43;11.30;;;;;;;;;;5047520;28;20706;-55
2023/10/10 14:23:41;;;;;;;13.50;9.97;;;;;;;;;;5047811;28;20200;-55
2023/10/10 14:26:13;;;;;;;15.90;10.90;;;;;;;;;;5051007;28;20200;-55
2023/10/10 14:28:41;;;;;;;13.87;10.43;;;;;;;;;;5044283;28;20192;-55
2023/10/10 14:31:11;;;;;;;16.47;10.10;;;;;;;;;;5049527;28;20208;-55
2023/10/10 14:33:39;;;;;;;15.53;9.40;;;;;;;;;;5051004;28;20250;-55
2023/10/10 14:36:05;;;;;;;12.40;9.53;;;;;;;;;;5049463;28;20240;-55
2023/10/10 14:38:31;;;;;;;15.33;9.40;;;;;;;;;;5049253;28;20698;-55
2023/10/10 14:41:00;;;;;;;10.83;8.20;;;;;;;;;;5050769;28;20727;-55
2023/10/10 14:43:27;;;;;;;13.10;8.20;;;;;;;;;;5050855;28;20278;-55
2023/10/10 14:45:53;;;;;;;14.60;9.80;;;;;;;;;;5050946;28;20200;-55
2023/10/10 14:48:19;;;;;;;10.60;8.13;;;;;;;;;;5049091;28;20659;-55
2023/10/10 14:50:52;;;;;;;11.53;8.40;;;;;;;;;;5050814;28;20207;-55
2023/10/10 14:53:22;;;;;;;13.67;8.80;;;;;;;;;;5050992;28;20192;-55
2023/10/10 14:55:48;;;;;;;13.20;8.97;;;;;;;;;;5051219;28;20209;-54
2023/10/10 14:58:15;;;;;;;10.73;7.97;;;;;;;;;;5050978;28;20316;-55
2023/10/10 15:00:43;;;;;;;10.80;7.03;;;;;;;;;;5053180;28;20750;-55
2023/10/10 15:03:13;;;;;;;12.50;8.77;;;;;;;;;;5053222;28;20220;-55
2023/10/10 15:05:52;;;;;;;13.27;8.93;;;;;;;;;;5054857;28;20200;-54
2023/10/10 15:08:19;;;;;;;13.73;9.90;;;;;;;;;;5054967;28;20638;-55
2023/10/10 15:10:46;;;;;;;16.23;9.77;;;;;;;;;;5055078;28;20227;-55
2023/10/10 15:13:15;;;;;;;14.63;8.77;;;;;;;;;;5054830;28;20279;-55
2023/10/10 15:15:45;;;;;;;13.17;8.83;;;;;;;;;;5054682;28;20201;-56
2023/10/10 15:18:12;;;;;;;13.63;9.93;;;;;;;;;;5054772;28;20208;-55
2023/10/10 15:20:43;;;;;;;13.60;8.17;;;;;;;;;;5052998;28;20201;-55
2023/10/10 15:23:10;;;;;;;12.90;8.77;;;;;;;;;;5049542;28;20201;-55
2023/10/10 15:25:36;;;;;;;12.80;8.63;;;;;;;;;;5052812;28;20226;-55
2023/10/10 15:28:03;;;;;;;14.67;8.07;;;;;;;;;;5052812;28;20733;-55
2023/10/10 15:30:29;;;;;;;12.67;8.33;;;;;;;;;;5050752;28;20250;-56
2023/10/10 15:33:01;;;;;;;15.83;9.10;;;;;;;;;;5050694;28;20200;-56
2023/10/10 15:35:28;;;;;;;16.57;8.60;;;;;;;;;;5049044;28;20323;-56
2023/10/10 15:37:54;;;;;;;12.93;7.83;;;;;;;;;;5052728;28;20236;-56
2023/10/10 15:40:21;;;;;;;13.07;7.83;;;;;;;;;;5054128;28;20267;-55
2023/10/10 15:42:48;;;;;;;10.90;7.40;;;;;;;;;;5054353;28;20199;-56
2023/10/10 15:45:20;;;;;;;13.80;7.73;;;;;;;;;;5052426;28;20266;-56
2023/10/10 15:47:48;;;;;;;12.37;7.87;;;;;;;;;;5054368;28;20196;-56
2023/10/10 15:50:16;;;;;;;12.93;7.27;;;;;;;;;;5048895;28;20211;-56
2023/10/10 15:52:43;;;;;;;11.57;7.07;;;;;;;;;;5052335;28;20196;-56
2023/10/10 15:55:15;;;;;;;13.70;7.63;;;;;;;;;;5052388;28;20208;-56
2023/10/10 15:57:41;;;;;;;12.37;6.90;;;;;;;;;;5053958;28;20204;-55
2023/10/10 16:00:13;;;;;;;12.67;7.67;;;;;;;;;;5053985;28;20216;-56
2023/10/10 16:02:39;;;;;;;12.77;8.07;;;;;;;;;;5053801;28;20211;-56
2023/10/10 16:05:06;;;;;;;15.17;7.20;;;;;;;;;;5053922;28;20280;-55
2023/10/10 16:07:33;;;;;;;9.53;7.27;;;;;;;;;;5053761;28;20203;-55
2023/10/10 16:09:59;;;;;;;13.33;8.13;;;;;;;;;;5053350;28;20196;-56
2023/10/10 16:12:25;;;;;;;10.53;7.63;;;;;;;;;;5053266;28;20196;-56
2023/10/10 16:14:51;;;;;;;9.00;6.97;;;;;;;;;;5050165;28;20557;-56
2023/10/10 16:17:17;;;;;;;11.27;7.50;;;;;;;;;;5050424;28;20227;-55
2023/10/10 16:19:43;;;;;;;10.37;7.17;;;;;;;;;;5051801;28;20310;-55
2023/10/10 16:22:13;;;;;;;8.40;6.43;;;;;;;;;;5053602;28;20254;-55
2023/10/10 16:24:40;;;;;;;9.57;7.33;;;;;;;;;;5049207;28;20242;-55
2023/10/10 16:27:08;;;;;;;8.20;6.63;;;;;;;;;;5043270;28;20201;-56
2023/10/10 16:29:34;;;;;;;9.90;6.50;;;;;;;;;;5041882;28;20204;-55
2023/10/10 16:32:00;;;;;;;12.27;7.47;;;;;;;;;;5043667;28;20216;-55
2023/10/10 16:34:26;;;;;;;10.53;6.57;;;;;;;;;;5042699;28;20627;-56
2023/10/10 16:36:52;;;;;;;12.00;7.10;;;;;;;;;;5041650;28;20228;-55
2023/10/10 16:39:18;;;;;;;13.57;8.07;;;;;;;;;;5048015;28;20322;-55
2023/10/10 16:41:47;;;;;;;11.53;6.97;;;;;;;;;;5049976;28;20199;-55
2023/10/10 16:44:14;;;;;;;10.97;7.60;;;;;;;;;;5051562;28;20310;-55
2023/10/10 16:46:40;;;;;;;13.17;7.10;;;;;;;;;;5051455;28;20294;-55
2023/10/10 16:49:06;;;;;;;10.60;7.23;;;;;;;;;;5052993;28;20218;-55
2023/10/10 16:51:32;;;;;;;12.03;7.37;;;;;;;;;;5053034;28;20227;-54
2023/10/10 16:53:59;;;;;;;9.77;7.33;;;;;;;;;;5052949;28;20210;-55
2023/10/10 16:56:25;;;;;;;10.70;6.80;;;;;;;;;;5052823;28;20198;-55
2023/10/10 16:58:52;;;;;;;9.77;6.70;;;;;;;;;;5052794;28;20329;-55
2023/10/10 17:01:22;;;;;;;11.63;7.07;;;;;;;;;;5043955;28;20248;-56
2023/10/10 17:03:49;;;;;;;11.23;7.03;;;;;;;;;;5032889;28;20217;-56
2023/10/10 17:06:22;;;;;;;10.87;7.00;;;;;;;;;;5032490;28;20254;-56
2023/10/10 17:08:49;;;;;;;10.43;6.60;;;;;;;;;;5032395;28;20296;-56
2023/10/10 17:11:15;;;;;;;10.77;6.37;;;;;;;;;;5032358;28;20199;-56
2023/10/10 17:13:41;;;;;;;8.93;6.70;;;;;;;;;;5032364;28;20206;-55
2023/10/10 17:16:12;;;;;;;10.97;6.47;;;;;;;;;;5032382;28;20223;-55
2023/10/10 17:18:41;;;;;;;8.50;5.73;;;;;;;;;;5032030;28;20227;-55
2023/10/10 17:21:08;;;;;;;8.23;5.63;;;;;;;;;;5031946;28;20650;-55
2023/10/10 17:23:35;;;;;;;8.67;5.50;;;;;;;;;;5032022;28;20235;-55
2023/10/10 17:26:01;;;;;;;10.20;5.80;;;;;;;;;;5032204;28;20207;-55